• Join FlightAware (Why Join?)
  • Login
  • US Flag 
12:37PM EST


 

Airport Tracker/Info


-or-


 

Live Flight TrackerFlight Track Log ✈ N207BG ✈ 27-Sep-2013 ✈ 1H2 - KBHM

Flight Track Log - Related Links

Times and Time Zones

All times are in EDT time to prevent confusion due to time zone crossing. See the N207BG flight status page for this flight to view local times or setup timezone preferences in your user account.

Time Position Orientation Groundspeed Altitude Reporting Facility
EDT Latitude Longitude Course Direction KTS MPH feet Rate Location/Type
03:58PM 38.9839 -88.4828 164° South 259 298 6,000  Level Indianapolis Center
03:59PM 38.9142 -88.4569 164° South 259 298 9,000 2,700 Climbing Indianapolis Center
04:00PM 38.8383 -88.4317 165° South 270 311 11,700 2,400 Climbing Indianapolis Center
04:01PM 38.7578 -88.4011 164° South 284 327 14,000 2,160 Climbing Indianapolis Center
04:03PM 38.6556 -88.3681 166° South 309 356 16,500 1,980 Climbing Kansas City Center
04:04PM 38.5692 -88.3394 165° South 317 365 18,300 1,680 Climbing Kansas City Center
04:05PM 38.4792 -88.3083 165° South 326 375 20,000 1,620 Climbing Kansas City Center
04:06PM 38.3667 -88.2714 166° South 341 392 21,700 1,500 Climbing Kansas City Center
04:07PM 38.2700 -88.2400 166° South 351 404 23,100 1,200 Climbing Kansas City Center
04:08PM 38.1708 -88.2075 166° South 361 415 24,300 1,080 Climbing Kansas City Center
04:09PM 38.0714 -88.1733 165° South 372 428 25,300 1,200 Climbing Indianapolis Center
04:10PM 37.9689 -88.1381 165° South 381 438 26,700 1,320 Climbing Indianapolis Center
04:11PM 37.8675 -88.1053 166° South 377 434 28,100 1,260 Climbing Indianapolis Center
04:12PM 37.7683 -88.0717 165° South 370 426 29,400 1,260 Climbing Indianapolis Center
04:13PM 37.6625 -88.0367 165° South 380 437 30,800 1,200 Climbing Indianapolis Center
04:14PM 37.5600 -88.0036 166° South 379 436 32,000 1,020 Climbing Indianapolis Center
04:15PM 37.4558 -87.9703 166° South 381 438 33,000 480 Climbing Indianapolis Center
04:16PM 37.3247 -87.9283 166° South 408 470 33,000  Level Indianapolis Center
04:17PM 37.2072 -87.8881 165° South 413 475 33,000  Level Memphis Center
04:18PM 37.0878 -87.8475 165° South 441 507 33,000  Level Memphis Center
04:19PM 36.9681 -87.8097 166° South 446 513 33,000  Level Memphis Center
04:20PM 36.8464 -87.7694 165° South 446 513 33,000  Level Memphis Center
04:21PM 36.7269 -87.7344 167° South 452 520 33,000  Level Memphis Center
04:22PM 36.6031 -87.6947 166° South 452 520 33,000  Level Memphis Center
04:23PM 36.4814 -87.6572 166° South 452 520 33,000  Level Memphis Center
04:24PM 36.3744 -87.6222 165° South 452 520 33,000  Level Memphis Center
04:25PM 36.2547 -87.5850 166° South 452 520 33,000  Level Memphis Center
04:26PM 36.1308 -87.5456 166° South 452 520 33,000  Level Memphis Center
04:27PM 36.0111 -87.5086 166° South 452 520 33,000  Level Memphis Center
04:28PM 35.8892 -87.4667 164° South 452 520 33,000  Level Memphis Center
04:29PM 35.7675 -87.4303 166° South 452 520 33,000  Level Memphis Center
04:30PM 35.6456 -87.3936 166° South 452 520 33,000  Level Memphis Center
04:31PM 35.5236 -87.3544 165° South 458 527 33,000  Level Memphis Center
04:32PM 35.4017 -87.3156 165° South 451 519 33,000 -360 Level Memphis Center
04:33PM 35.2839 -87.2767 165° South 451 519 32,300 -900 Descending Memphis Center
04:34PM 35.1600 -87.2381 166° South 451 519 31,300 -1,080 Descending Memphis Center
04:35PM 35.0214 -87.1978 167° South 466 536 30,200 -1,740 Descending Memphis Center
04:36PM 34.8992 -87.1592 165° South 466 536 27,900 -2,340 Descending Memphis Center
04:37PM 34.7858 -87.1256 166° South 439 505 25,600 -2,220 Descending Memphis Center
04:38PM 34.6764 -87.0919 166° South 417 480 23,500 -2,160 Descending Memphis Center
04:39PM 34.5300 -87.0392 163° South 402 463 20,400 -2,160 Descending Atlanta Center
04:40PM 34.4283 -87.0106 167° South 389 448 18,300 -2,040 Descending Atlanta Center
04:41PM 34.3269 -86.9792 166° South 384 442 16,400 -1,740 Descending Atlanta Center
04:42PM 34.2419 -86.9536 166° South 370 426 14,900 -1,800 Descending Atlanta Center
04:43PM 34.2169 -86.9528 178° South 340 391 14,300 -1,740 Descending Atlanta Center
04:43PM 34.1528 -86.9281 162° South 349 402 13,200 -1,740 Descending Atlanta Center
04:44PM 34.1256 -86.9272 179° South 323 372 12,600 -1,800 Descending Atlanta Center
04:44PM 34.0636 -86.9025 162° South 338 389 11,400 -1,620 Descending Atlanta Center
04:45PM 34.0386 -86.8992 174° South 331 381 11,000 -1,200 Descending Atlanta Center
04:45PM 33.9742 -86.8869 171° South 333 383 10,200 -1,380 Descending Atlanta Center
04:46PM 33.9511 -86.8911 189° South 313 360 9,600 -1,800 Descending Atlanta Center
04:46PM 33.8950 -86.8817 172° South 316 364 8,400 -1,980 Descending Atlanta Center
04:47PM 33.8678 -86.8858 187° South 272 313 7,600 -1,800 Descending Atlanta Center
04:47PM 33.8200 -86.8767 171° South 294 338 6,600 -1,680 Descending Atlanta Center
04:48PM 33.7908 -86.8783 183° South 277 319 5,900 -1,620 Descending Atlanta Center
04:48PM 33.7450 -86.8742 176° South 281 323 5,000 -1,500 Descending Atlanta Center
04:49PM 33.7156 -86.8758 183° South 268 308 4,400 -1,020 Descending Atlanta Center
04:49PM 33.6700 -86.8692 173° South 269 310 4,000 -420 Descending Atlanta Center
04:50PM 33.6425 -86.8758 191° South 269 310 4,000  Level Atlanta Center
04:50PM 33.5964 -86.8844 189° South 269 310 4,000 -240 Level Atlanta Center
04:51PM 33.5692 -86.8933 195° South 272 313 3,800 -1,200 Descending Atlanta Center
04:51PM 33.5233 -86.8844 171° South 274 315 2,800 -1,200 Descending Atlanta Center
04:52PM 33.5158 -86.8542 107° East 226 260 2,600 -600 Descending Atlanta Center
04:52PM 33.5208 -86.8222 79° East 186 214 2,200 -900 Descending Atlanta Center
04:53PM 33.5336 -86.8075 44° Northeast 136 157 1,700 -1,680 Descending Atlanta Center
04:55PM 33.5500 -86.7500 73° East  Level FlightAware Approximate
05:02PM 33.5639 -86.7523 73° East  Level Estimated